sensor_id;sensor_type;location;lat;lon;timestamp;temperature;humidity
11664;DHT22;72375;59.302;18.204;2023-12-20T00:00:40;3.40;99.90
11664;DHT22;72375;59.302;18.204;2023-12-20T00:03:27;3.40;99.90
11664;DHT22;72375;59.302;18.204;2023-12-20T00:06:13;3.40;99.90
11664;DHT22;72375;59.302;18.204;2023-12-20T00:08:58;3.40;99.90
11664;DHT22;72375;59.302;18.204;2023-12-20T00:11:44;3.30;99.90
11664;DHT22;72375;59.302;18.204;2023-12-20T00:14:30;3.20;99.90
11664;DHT22;72375;59.302;18.204;2023-12-20T00:17:16;3.30;99.90
11664;DHT22;72375;59.302;18.204;2023-12-20T00:20:03;3.30;99.90
11664;DHT22;72375;59.302;18.204;2023-12-20T00:22:50;3.30;99.90
11664;DHT22;72375;59.302;18.204;2023-12-20T00:25:36;3.20;99.90
11664;DHT22;72375;59.302;18.204;2023-12-20T00:28:22;3.20;99.90
11664;DHT22;72375;59.302;18.204;2023-12-20T00:31:07;3.10;99.90
11664;DHT22;72375;59.302;18.204;2023-12-20T00:33:53;3.10;99.90
11664;DHT22;72375;59.302;18.204;2023-12-20T00:36:40;3.10;99.90
11664;DHT22;72375;59.302;18.204;2023-12-20T00:39:25;3.50;99.90
11664;DHT22;72375;59.302;18.204;2023-12-20T00:42:11;3.00;99.90
11664;DHT22;72375;59.302;18.204;2023-12-20T00:44:56;3.00;99.90
11664;DHT22;72375;59.302;18.204;2023-12-20T00:47:42;3.00;99.90
11664;DHT22;72375;59.302;18.204;2023-12-20T00:50:28;3.00;99.90
11664;DHT22;72375;59.302;18.204;2023-12-20T00:53:15;2.90;99.90
11664;DHT22;72375;59.302;18.204;2023-12-20T00:56:00;2.90;99.90
11664;DHT22;72375;59.302;18.204;2023-12-20T00:58:46;2.90;99.90
11664;DHT22;72375;59.302;18.204;2023-12-20T01:01:32;2.90;99.90
11664;DHT22;72375;59.302;18.204;2023-12-20T01:04:17;2.90;99.90
11664;DHT22;72375;59.302;18.204;2023-12-20T01:07:03;3.40;99.90
11664;DHT22;72375;59.302;18.204;2023-12-20T01:09:51;2.90;99.90
11664;DHT22;72375;59.302;18.204;2023-12-20T01:12:36;2.90;99.90
11664;DHT22;72375;59.302;18.204;2023-12-20T01:15:22;3.00;99.90
11664;DHT22;72375;59.302;18.204;2023-12-20T01:18:07;2.80;99.90
11664;DHT22;72375;59.302;18.204;2023-12-20T01:20:53;2.80;99.90
11664;DHT22;72375;59.302;18.204;2023-12-20T01:23:38;2.80;99.90
11664;DHT22;72375;59.302;18.204;2023-12-20T01:26:26;2.80;99.90
11664;DHT22;72375;59.302;18.204;2023-12-20T01:29:11;2.70;99.90
11664;DHT22;72375;59.302;18.204;2023-12-20T01:31:58;2.70;99.90
11664;DHT22;72375;59.302;18.204;2023-12-20T01:34:44;2.70;99.90
11664;DHT22;72375;59.302;18.204;2023-12-20T01:37:29;2.70;99.90
11664;DHT22;72375;59.302;18.204;2023-12-20T01:40:16;2.70;99.90
11664;DHT22;72375;59.302;18.204;2023-12-20T01:43:07;2.70;99.90
11664;DHT22;72375;59.302;18.204;2023-12-20T01:45:53;2.70;99.90
11664;DHT22;72375;59.302;18.204;2023-12-20T01:48:40;2.70;99.90
11664;DHT22;72375;59.302;18.204;2023-12-20T01:51:27;2.70;99.90
11664;DHT22;72375;59.302;18.204;2023-12-20T01:54:13;2.60;99.90
11664;DHT22;72375;59.302;18.204;2023-12-20T01:56:59;2.60;99.90
11664;DHT22;72375;59.302;18.204;2023-12-20T01:59:46;2.60;99.90
11664;DHT22;72375;59.302;18.204;2023-12-20T02:02:31;2.50;99.90
11664;DHT22;72375;59.302;18.204;2023-12-20T02:05:18;2.70;99.90
11664;DHT22;72375;59.302;18.204;2023-12-20T02:08:04;2.60;99.90
11664;DHT22;72375;59.302;18.204;2023-12-20T02:10:50;2.60;99.90
11664;DHT22;72375;59.302;18.204;2023-12-20T02:13:36;2.50;99.90
11664;DHT22;72375;59.302;18.204;2023-12-20T02:16:23;2.60;99.90
11664;DHT22;72375;59.302;18.204;2023-12-20T02:19:13;2.60;99.90
11664;DHT22;72375;59.302;18.204;2023-12-20T02:22:08;2.60;99.90
11664;DHT22;72375;59.302;18.204;2023-12-20T02:24:53;2.60;99.90
11664;DHT22;72375;59.302;18.204;2023-12-20T02:27:40;2.60;99.90
11664;DHT22;72375;59.302;18.204;2023-12-20T02:30:25;2.60;99.90
11664;DHT22;72375;59.302;18.204;2023-12-20T02:33:12;2.60;99.90
11664;DHT22;72375;59.302;18.204;2023-12-20T02:35:59;2.50;99.90
11664;DHT22;72375;59.302;18.204;2023-12-20T02:38:46;3.30;99.90
11664;DHT22;72375;59.302;18.204;2023-12-20T02:41:32;2.50;99.90
11664;DHT22;72375;59.302;18.204;2023-12-20T02:44:18;2.60;99.90
11664;DHT22;72375;59.302;18.204;2023-12-20T02:47:04;2.50;99.90
11664;DHT22;72375;59.302;18.204;2023-12-20T02:49:49;2.60;99.90
11664;DHT22;72375;59.302;18.204;2023-12-20T02:52:37;2.50;99.90
11664;DHT22;72375;59.302;18.204;2023-12-20T02:55:24;2.50;99.90
11664;DHT22;72375;59.302;18.204;2023-12-20T02:58:09;2.50;99.90
11664;DHT22;72375;59.302;18.204;2023-12-20T03:00:55;2.50;99.90
11664;DHT22;72375;59.302;18.204;2023-12-20T03:03:40;2.60;99.90
11664;DHT22;72375;59.302;18.204;2023-12-20T03:06:26;2.50;99.90
11664;DHT22;72375;59.302;18.204;2023-12-20T03:09:12;2.60;99.90
11664;DHT22;72375;59.302;18.204;2023-12-20T03:11:59;2.80;99.90
11664;DHT22;72375;59.302;18.204;2023-12-20T03:14:44;2.50;99.90
11664;DHT22;72375;59.302;18.204;2023-12-20T03:17:30;2.50;99.90
11664;DHT22;72375;59.302;18.204;2023-12-20T03:20:16;2.50;99.90
11664;DHT22;72375;59.302;18.204;2023-12-20T03:23:01;2.50;99.90
11664;DHT22;72375;59.302;18.204;2023-12-20T03:25:47;2.50;99.90
11664;DHT22;72375;59.302;18.204;2023-12-20T03:28:34;2.50;99.90
11664;DHT22;72375;59.302;18.204;2023-12-20T03:31:21;2.50;99.90
11664;DHT22;72375;59.302;18.204;2023-12-20T03:34:06;2.50;99.90
11664;DHT22;72375;59.302;18.204;2023-12-20T03:36:52;2.50;99.90
11664;DHT22;72375;59.302;18.204;2023-12-20T03:39:38;2.50;99.90
11664;DHT22;72375;59.302;18.204;2023-12-20T03:42:24;2.60;99.90
11664;DHT22;72375;59.302;18.204;2023-12-20T03:45:11;2.60;99.90
11664;DHT22;72375;59.302;18.204;2023-12-20T03:47:56;2.60;99.90
11664;DHT22;72375;59.302;18.204;2023-12-20T03:50:42;2.60;99.90
11664;DHT22;72375;59.302;18.204;2023-12-20T03:53:28;2.60;99.90
11664;DHT22;72375;59.302;18.204;2023-12-20T03:56:13;2.60;99.90
11664;DHT22;72375;59.302;18.204;2023-12-20T03:58:59;2.60;99.90
11664;DHT22;72375;59.302;18.204;2023-12-20T04:01:46;2.60;99.90
11664;DHT22;72375;59.302;18.204;2023-12-20T04:04:32;2.70;99.90
11664;DHT22;72375;59.302;18.204;2023-12-20T04:07:17;2.60;99.90
11664;DHT22;72375;59.302;18.204;2023-12-20T04:10:03;2.60;99.90
11664;DHT22;72375;59.302;18.204;2023-12-20T04:12:49;2.60;99.90
11664;DHT22;72375;59.302;18.204;2023-12-20T04:15:35;2.60;99.90
11664;DHT22;72375;59.302;18.204;2023-12-20T04:18:22;2.60;99.90
11664;DHT22;72375;59.302;18.204;2023-12-20T04:21:08;3.30;99.90
11664;DHT22;72375;59.302;18.204;2023-12-20T04:23:53;2.60;99.90
11664;DHT22;72375;59.302;18.204;2023-12-20T04:26:39;2.60;99.90
11664;DHT22;72375;59.302;18.204;2023-12-20T04:29:24;2.60;99.90
11664;DHT22;72375;59.302;18.204;2023-12-20T04:32:10;2.70;99.90
11664;DHT22;72375;59.302;18.204;2023-12-20T04:34:58;2.60;99.90
11664;DHT22;72375;59.302;18.204;2023-12-20T04:37:43;2.60;99.90
11664;DHT22;72375;59.302;18.204;2023-12-20T04:40:29;2.70;99.90
11664;DHT22;72375;59.302;18.204;2023-12-20T04:43:14;2.70;99.90
11664;DHT22;72375;59.302;18.204;2023-12-20T04:46:00;2.60;99.90
11664;DHT22;72375;59.302;18.204;2023-12-20T04:48:46;3.40;99.90
11664;DHT22;72375;59.302;18.204;2023-12-20T04:51:34;2.60;99.90
11664;DHT22;72375;59.302;18.204;2023-12-20T04:54:20;2.60;99.90
11664;DHT22;72375;59.302;18.204;2023-12-20T04:57:05;2.60;99.90
11664;DHT22;72375;59.302;18.204;2023-12-20T04:59:51;2.60;99.90
11664;DHT22;72375;59.302;18.204;2023-12-20T05:02:37;2.50;99.90
11664;DHT22;72375;59.302;18.204;2023-12-20T05:05:23;2.50;99.90
11664;DHT22;72375;59.302;18.204;2023-12-20T05:08:10;2.50;99.90
11664;DHT22;72375;59.302;18.204;2023-12-20T05:10:56;2.50;99.90
11664;DHT22;72375;59.302;18.204;2023-12-20T05:13:41;2.40;99.90
11664;DHT22;72375;59.302;18.204;2023-12-20T05:16:26;2.40;99.90
11664;DHT22;72375;59.302;18.204;2023-12-20T05:19:12;2.40;99.90
11664;DHT22;72375;59.302;18.204;2023-12-20T05:21:58;3.20;99.90
11664;DHT22;72375;59.302;18.204;2023-12-20T05:24:45;2.40;99.90
11664;DHT22;72375;59.302;18.204;2023-12-20T05:27:31;2.40;99.90
11664;DHT22;72375;59.302;18.204;2023-12-20T05:30:17;2.40;99.90
11664;DHT22;72375;59.302;18.204;2023-12-20T05:33:02;2.40;99.90
11664;DHT22;72375;59.302;18.204;2023-12-20T05:35:48;2.40;99.90
11664;DHT22;72375;59.302;18.204;2023-12-20T05:38:34;2.40;99.90
11664;DHT22;72375;59.302;18.204;2023-12-20T05:41:21;3.20;99.90
11664;DHT22;72375;59.302;18.204;2023-12-20T05:44:07;2.40;99.90
11664;DHT22;72375;59.302;18.204;2023-12-20T05:46:52;2.50;99.90
11664;DHT22;72375;59.302;18.204;2023-12-20T05:49:38;2.50;99.90
11664;DHT22;72375;59.302;18.204;2023-12-20T05:52:24;2.50;99.90
11664;DHT22;72375;59.302;18.204;2023-12-20T05:55:09;2.50;99.90
11664;DHT22;72375;59.302;18.204;2023-12-20T05:57:56;2.60;99.90
11664;DHT22;72375;59.302;18.204;2023-12-20T06:00:42;2.50;99.90
11664;DHT22;72375;59.302;18.204;2023-12-20T06:03:27;2.50;99.90
11664;DHT22;72375;59.302;18.204;2023-12-20T06:06:13;2.50;99.90
11664;DHT22;72375;59.302;18.204;2023-12-20T06:08:59;2.60;99.90
11664;DHT22;72375;59.302;18.204;2023-12-20T06:11:45;2.60;99.90
11664;DHT22;72375;59.302;18.204;2023-12-20T06:14:32;2.60;99.90
11664;DHT22;72375;59.302;18.204;2023-12-20T06:17:17;2.60;99.90
11664;DHT22;72375;59.302;18.204;2023-12-20T06:20:04;2.60;99.90
11664;DHT22;72375;59.302;18.204;2023-12-20T06:22:51;2.50;99.90
11664;DHT22;72375;59.302;18.204;2023-12-20T06:25:37;2.60;99.90
11664;DHT22;72375;59.302;18.204;2023-12-20T06:28:23;2.60;99.90
11664;DHT22;72375;59.302;18.204;2023-12-20T06:31:10;2.60;99.90
11664;DHT22;72375;59.302;18.204;2023-12-20T06:33:55;2.60;99.90
11664;DHT22;72375;59.302;18.204;2023-12-20T06:36:43;2.60;99.90
11664;DHT22;72375;59.302;18.204;2023-12-20T06:39:29;3.20;99.90
11664;DHT22;72375;59.302;18.204;2023-12-20T06:42:15;2.70;99.90
11664;DHT22;72375;59.302;18.204;2023-12-20T06:45:01;2.60;99.90
11664;DHT22;72375;59.302;18.204;2023-12-20T06:47:48;2.70;99.90
11664;DHT22;72375;59.302;18.204;2023-12-20T06:50:34;3.40;99.90
11664;DHT22;72375;59.302;18.204;2023-12-20T06:53:24;2.70;99.90
11664;DHT22;72375;59.302;18.204;2023-12-20T06:56:10;2.70;99.90
11664;DHT22;72375;59.302;18.204;2023-12-20T06:58:56;2.70;99.90
11664;DHT22;72375;59.302;18.204;2023-12-20T07:01:42;2.70;99.90
11664;DHT22;72375;59.302;18.204;2023-12-20T07:04:29;2.70;99.90
11664;DHT22;72375;59.302;18.204;2023-12-20T07:07:14;2.70;99.90
11664;DHT22;72375;59.302;18.204;2023-12-20T07:10:00;2.60;99.90
11664;DHT22;72375;59.302;18.204;2023-12-20T07:12:45;2.70;99.90
11664;DHT22;72375;59.302;18.204;2023-12-20T07:15:33;2.70;99.90
11664;DHT22;72375;59.302;18.204;2023-12-20T07:18:18;2.80;99.90
11664;DHT22;72375;59.302;18.204;2023-12-20T07:21:05;2.70;99.90
11664;DHT22;72375;59.302;18.204;2023-12-20T07:23:52;2.70;99.90
11664;DHT22;72375;59.302;18.204;2023-12-20T07:26:38;2.80;99.90
11664;DHT22;72375;59.302;18.204;2023-12-20T07:29:24;2.80;99.90
11664;DHT22;72375;59.302;18.204;2023-12-20T07:32:09;2.80;99.90
11664;DHT22;72375;59.302;18.204;2023-12-20T07:34:55;2.80;99.90
11664;DHT22;72375;59.302;18.204;2023-12-20T07:37:42;3.50;99.90
11664;DHT22;72375;59.302;18.204;2023-12-20T07:40:28;2.80;99.90
11664;DHT22;72375;59.302;18.204;2023-12-20T07:43:14;2.80;99.90
11664;DHT22;72375;59.302;18.204;2023-12-20T07:46:04;3.40;99.90
11664;DHT22;72375;59.302;18.204;2023-12-20T07:48:50;2.80;99.90
11664;DHT22;72375;59.302;18.204;2023-12-20T07:51:36;2.90;99.90
11664;DHT22;72375;59.302;18.204;2023-12-20T07:54:23;2.90;99.90
11664;DHT22;72375;59.302;18.204;2023-12-20T07:57:09;2.90;99.90
11664;DHT22;72375;59.302;18.204;2023-12-20T07:59:54;2.90;99.90
11664;DHT22;72375;59.302;18.204;2023-12-20T08:02:40;2.90;99.90
11664;DHT22;72375;59.302;18.204;2023-12-20T08:05:26;2.90;99.90
11664;DHT22;72375;59.302;18.204;2023-12-20T08:08:12;2.90;99.90
11664;DHT22;72375;59.302;18.204;2023-12-20T08:10:58;2.90;99.90
11664;DHT22;72375;59.302;18.204;2023-12-20T08:13:44;2.90;99.90
11664;DHT22;72375;59.302;18.204;2023-12-20T08:16:30;3.50;99.90
11664;DHT22;72375;59.302;18.204;2023-12-20T08:19:15;2.90;99.90
11664;DHT22;72375;59.302;18.204;2023-12-20T08:22:01;3.00;99.90
11664;DHT22;72375;59.302;18.204;2023-12-20T08:24:47;3.00;99.90
11664;DHT22;72375;59.302;18.204;2023-12-20T08:27:36;3.00;99.90
11664;DHT22;72375;59.302;18.204;2023-12-20T08:30:22;3.00;99.90
11664;DHT22;72375;59.302;18.204;2023-12-20T08:33:09;3.00;99.90
11664;DHT22;72375;59.302;18.204;2023-12-20T08:35:56;3.00;99.90
11664;DHT22;72375;59.302;18.204;2023-12-20T08:38:42;3.30;99.90
11664;DHT22;72375;59.302;18.204;2023-12-20T08:41:28;3.10;99.90
11664;DHT22;72375;59.302;18.204;2023-12-20T08:44:15;3.10;99.90
11664;DHT22;72375;59.302;18.204;2023-12-20T08:47:00;3.10;99.90
11664;DHT22;72375;59.302;18.204;2023-12-20T08:49:46;3.10;99.90
11664;DHT22;72375;59.302;18.204;2023-12-20T08:52:32;3.10;99.90
11664;DHT22;72375;59.302;18.204;2023-12-20T08:55:18;3.20;99.90
11664;DHT22;72375;59.302;18.204;2023-12-20T08:58:04;3.10;99.90
11664;DHT22;72375;59.302;18.204;2023-12-20T09:00:52;3.10;99.90
11664;DHT22;72375;59.302;18.204;2023-12-20T09:03:38;3.10;99.90
11664;DHT22;72375;59.302;18.204;2023-12-20T09:06:24;3.10;99.90
11664;DHT22;72375;59.302;18.204;2023-12-20T09:09:09;3.20;99.90
11664;DHT22;72375;59.302;18.204;2023-12-20T09:11:58;3.20;99.90
11664;DHT22;72375;59.302;18.204;2023-12-20T09:14:43;3.70;99.90
11664;DHT22;72375;59.302;18.204;2023-12-20T09:17:30;3.20;99.90
11664;DHT22;72375;59.302;18.204;2023-12-20T09:20:16;3.20;99.90
11664;DHT22;72375;59.302;18.204;2023-12-20T09:23:02;3.20;99.90
11664;DHT22;72375;59.302;18.204;2023-12-20T09:25:47;3.20;99.90
11664;DHT22;72375;59.302;18.204;2023-12-20T09:28:33;3.20;99.90
11664;DHT22;72375;59.302;18.204;2023-12-20T09:31:21;3.20;99.90
11664;DHT22;72375;59.302;18.204;2023-12-20T09:34:08;3.30;99.90
11664;DHT22;72375;59.302;18.204;2023-12-20T09:36:53;3.30;99.90
11664;DHT22;72375;59.302;18.204;2023-12-20T09:39:39;3.30;99.90
11664;DHT22;72375;59.302;18.204;2023-12-20T09:42:32;3.30;99.90
11664;DHT22;72375;59.302;18.204;2023-12-20T09:45:21;3.30;99.90
11664;DHT22;72375;59.302;18.204;2023-12-20T09:48:07;3.30;99.90
11664;DHT22;72375;59.302;18.204;2023-12-20T09:50:57;3.30;99.90
11664;DHT22;72375;59.302;18.204;2023-12-20T09:53:43;3.40;99.90
11664;DHT22;72375;59.302;18.204;2023-12-20T09:56:29;3.40;99.90
11664;DHT22;72375;59.302;18.204;2023-12-20T09:59:15;3.40;99.90
11664;DHT22;72375;59.302;18.204;2023-12-20T10:02:01;3.40;99.90
11664;DHT22;72375;59.302;18.204;2023-12-20T10:04:49;3.40;99.90
11664;DHT22;72375;59.302;18.204;2023-12-20T10:07:36;3.40;99.90
11664;DHT22;72375;59.302;18.204;2023-12-20T10:10:22;3.40;99.90
11664;DHT22;72375;59.302;18.204;2023-12-20T10:13:10;3.40;99.90
11664;DHT22;72375;59.302;18.204;2023-12-20T10:15:56;3.40;99.90
11664;DHT22;72375;59.302;18.204;2023-12-20T10:18:42;3.40;99.90
11664;DHT22;72375;59.302;18.204;2023-12-20T10:21:28;3.80;99.90
11664;DHT22;72375;59.302;18.204;2023-12-20T10:24:18;3.50;99.90
11664;DHT22;72375;59.302;18.204;2023-12-20T10:27:05;3.50;99.90
11664;DHT22;72375;59.302;18.204;2023-12-20T10:29:51;3.50;99.90
11664;DHT22;72375;59.302;18.204;2023-12-20T10:32:37;3.50;99.90
11664;DHT22;72375;59.302;18.204;2023-12-20T10:35:23;3.50;99.90
11664;DHT22;72375;59.302;18.204;2023-12-20T10:38:08;3.50;99.90
11664;DHT22;72375;59.302;18.204;2023-12-20T10:40:57;3.50;99.90
11664;DHT22;72375;59.302;18.204;2023-12-20T10:43:45;3.50;99.90
11664;DHT22;72375;59.302;18.204;2023-12-20T10:46:31;3.60;99.90
11664;DHT22;72375;59.302;18.204;2023-12-20T10:49:17;3.60;99.90
11664;DHT22;72375;59.302;18.204;2023-12-20T10:52:04;3.60;99.90
11664;DHT22;72375;59.302;18.204;2023-12-20T10:54:51;3.60;99.90
11664;DHT22;72375;59.302;18.204;2023-12-20T10:57:38;3.60;99.90
11664;DHT22;72375;59.302;18.204;2023-12-20T11:00:25;3.60;99.90
11664;DHT22;72375;59.302;18.204;2023-12-20T11:03:11;4.30;99.90
11664;DHT22;72375;59.302;18.204;2023-12-20T11:06:01;3.60;99.90
11664;DHT22;72375;59.302;18.204;2023-12-20T11:08:53;3.60;99.90
11664;DHT22;72375;59.302;18.204;2023-12-20T11:11:46;3.60;99.90
11664;DHT22;72375;59.302;18.204;2023-12-20T11:14:41;3.70;99.90
11664;DHT22;72375;59.302;18.204;2023-12-20T11:17:31;3.70;99.90
11664;DHT22;72375;59.302;18.204;2023-12-20T11:20:17;3.70;99.90
11664;DHT22;72375;59.302;18.204;2023-12-20T11:23:03;3.70;99.90
11664;DHT22;72375;59.302;18.204;2023-12-20T11:25:50;3.70;99.90
11664;DHT22;72375;59.302;18.204;2023-12-20T11:28:36;3.70;99.90
11664;DHT22;72375;59.302;18.204;2023-12-20T11:31:24;3.80;99.90
11664;DHT22;72375;59.302;18.204;2023-12-20T11:34:15;3.80;99.90
11664;DHT22;72375;59.302;18.204;2023-12-20T11:37:03;3.80;99.90
11664;DHT22;72375;59.302;18.204;2023-12-20T11:39:54;3.80;99.90
11664;DHT22;72375;59.302;18.204;2023-12-20T11:42:40;3.80;99.90
11664;DHT22;72375;59.302;18.204;2023-12-20T11:45:26;3.80;99.90
11664;DHT22;72375;59.302;18.204;2023-12-20T11:48:14;3.80;99.90
11664;DHT22;72375;59.302;18.204;2023-12-20T11:50:59;3.90;99.90
11664;DHT22;72375;59.302;18.204;2023-12-20T11:53:46;3.90;99.90
11664;DHT22;72375;59.302;18.204;2023-12-20T11:56:36;4.00;99.90
11664;DHT22;72375;59.302;18.204;2023-12-20T11:59:22;4.00;99.90
11664;DHT22;72375;59.302;18.204;2023-12-20T12:02:07;3.90;99.90
11664;DHT22;72375;59.302;18.204;2023-12-20T12:04:54;3.90;99.90
11664;DHT22;72375;59.302;18.204;2023-12-20T12:07:40;3.90;99.90
11664;DHT22;72375;59.302;18.204;2023-12-20T12:10:26;4.00;99.90
11664;DHT22;72375;59.302;18.204;2023-12-20T12:13:12;4.00;99.90
11664;DHT22;72375;59.302;18.204;2023-12-20T12:15:59;4.00;99.90
11664;DHT22;72375;59.302;18.204;2023-12-20T12:18:44;4.00;99.90
11664;DHT22;72375;59.302;18.204;2023-12-20T12:21:32;4.00;99.90
11664;DHT22;72375;59.302;18.204;2023-12-20T12:24:20;4.00;99.90
11664;DHT22;72375;59.302;18.204;2023-12-20T12:27:06;4.20;99.90
11664;DHT22;72375;59.302;18.204;2023-12-20T12:30:02;4.00;99.90
11664;DHT22;72375;59.302;18.204;2023-12-20T12:32:48;4.00;99.90
11664;DHT22;72375;59.302;18.204;2023-12-20T12:35:34;4.00;99.90
11664;DHT22;72375;59.302;18.204;2023-12-20T12:38:22;4.00;99.90
11664;DHT22;72375;59.302;18.204;2023-12-20T12:41:07;4.10;99.90
11664;DHT22;72375;59.302;18.204;2023-12-20T12:43:54;4.00;99.90
11664;DHT22;72375;59.302;18.204;2023-12-20T12:46:40;4.00;99.90
11664;DHT22;72375;59.302;18.204;2023-12-20T12:49:28;4.00;99.90
11664;DHT22;72375;59.302;18.204;2023-12-20T12:52:14;4.10;99.90
11664;DHT22;72375;59.302;18.204;2023-12-20T12:55:01;4.00;99.90
11664;DHT22;72375;59.302;18.204;2023-12-20T12:57:47;4.00;99.90
11664;DHT22;72375;59.302;18.204;2023-12-20T13:00:33;4.00;99.90
11664;DHT22;72375;59.302;18.204;2023-12-20T13:03:19;4.00;99.90
11664;DHT22;72375;59.302;18.204;2023-12-20T13:06:05;4.50;99.90
11664;DHT22;72375;59.302;18.204;2023-12-20T13:08:52;4.00;99.90
11664;DHT22;72375;59.302;18.204;2023-12-20T13:11:41;4.00;99.90
11664;DHT22;72375;59.302;18.204;2023-12-20T13:14:26;4.30;99.90
11664;DHT22;72375;59.302;18.204;2023-12-20T13:17:12;4.00;99.90
11664;DHT22;72375;59.302;18.204;2023-12-20T13:19:57;4.00;99.90
11664;DHT22;72375;59.302;18.204;2023-12-20T13:22:44;4.00;99.90
11664;DHT22;72375;59.302;18.204;2023-12-20T13:25:29;4.00;99.90
11664;DHT22;72375;59.302;18.204;2023-12-20T13:28:17;4.00;99.90
11664;DHT22;72375;59.302;18.204;2023-12-20T13:31:02;4.00;99.90
11664;DHT22;72375;59.302;18.204;2023-12-20T13:33:48;4.00;99.90
11664;DHT22;72375;59.302;18.204;2023-12-20T13:36:35;4.50;99.90
11664;DHT22;72375;59.302;18.204;2023-12-20T13:39:21;4.00;99.90
11664;DHT22;72375;59.302;18.204;2023-12-20T13:42:07;4.00;99.90
11664;DHT22;72375;59.302;18.204;2023-12-20T13:44:54;4.00;99.90
11664;DHT22;72375;59.302;18.204;2023-12-20T13:47:40;4.00;99.90
11664;DHT22;72375;59.302;18.204;2023-12-20T13:50:25;4.00;99.90
11664;DHT22;72375;59.302;18.204;2023-12-20T13:53:11;4.00;99.90
11664;DHT22;72375;59.302;18.204;2023-12-20T13:55:57;4.00;99.90
11664;DHT22;72375;59.302;18.204;2023-12-20T13:58:44;4.00;99.90
11664;DHT22;72375;59.302;18.204;2023-12-20T14:01:31;4.00;99.90
11664;DHT22;72375;59.302;18.204;2023-12-20T14:04:17;4.10;99.90
11664;DHT22;72375;59.302;18.204;2023-12-20T14:07:03;4.10;99.90
11664;DHT22;72375;59.302;18.204;2023-12-20T14:09:48;4.00;99.90
11664;DHT22;72375;59.302;18.204;2023-12-20T14:12:35;4.00;99.90
11664;DHT22;72375;59.302;18.204;2023-12-20T14:15:22;4.10;99.90
11664;DHT22;72375;59.302;18.204;2023-12-20T14:18:11;4.00;99.90
11664;DHT22;72375;59.302;18.204;2023-12-20T14:20:58;4.00;99.90
11664;DHT22;72375;59.302;18.204;2023-12-20T14:23:45;4.00;99.90
11664;DHT22;72375;59.302;18.204;2023-12-20T14:26:31;4.00;99.90
11664;DHT22;72375;59.302;18.204;2023-12-20T14:29:17;4.00;99.90
11664;DHT22;72375;59.302;18.204;2023-12-20T14:32:03;4.00;99.90
11664;DHT22;72375;59.302;18.204;2023-12-20T14:34:51;4.00;99.90
11664;DHT22;72375;59.302;18.204;2023-12-20T14:37:37;4.10;99.90
11664;DHT22;72375;59.302;18.204;2023-12-20T14:40:24;4.00;99.90
11664;DHT22;72375;59.302;18.204;2023-12-20T14:43:10;4.00;99.90
11664;DHT22;72375;59.302;18.204;2023-12-20T14:45:55;4.00;99.90
11664;DHT22;72375;59.302;18.204;2023-12-20T14:48:41;4.00;99.90
11664;DHT22;72375;59.302;18.204;2023-12-20T14:51:28;4.00;99.90
11664;DHT22;72375;59.302;18.204;2023-12-20T14:54:14;4.00;99.90
11664;DHT22;72375;59.302;18.204;2023-12-20T14:57:00;4.00;99.90
11664;DHT22;72375;59.302;18.204;2023-12-20T14:59:46;4.00;99.90
11664;DHT22;72375;59.302;18.204;2023-12-20T15:02:33;4.10;99.90
11664;DHT22;72375;59.302;18.204;2023-12-20T15:05:19;4.10;99.90
11664;DHT22;72375;59.302;18.204;2023-12-20T15:08:07;4.10;99.90
11664;DHT22;72375;59.302;18.204;2023-12-20T15:10:57;4.10;99.90
11664;DHT22;72375;59.302;18.204;2023-12-20T15:13:46;4.10;99.90
11664;DHT22;72375;59.302;18.204;2023-12-20T15:16:39;4.10;99.90
11664;DHT22;72375;59.302;18.204;2023-12-20T15:19:27;4.10;99.90
11664;DHT22;72375;59.302;18.204;2023-12-20T15:22:15;4.10;99.90
11664;DHT22;72375;59.302;18.204;2023-12-20T15:25:02;4.20;99.90
11664;DHT22;72375;59.302;18.204;2023-12-20T15:27:49;4.10;99.90
11664;DHT22;72375;59.302;18.204;2023-12-20T15:30:37;4.20;99.90
11664;DHT22;72375;59.302;18.204;2023-12-20T15:33:22;4.20;99.90
11664;DHT22;72375;59.302;18.204;2023-12-20T15:36:09;4.20;99.90
11664;DHT22;72375;59.302;18.204;2023-12-20T15:38:54;4.20;99.90
11664;DHT22;72375;59.302;18.204;2023-12-20T15:41:42;4.20;99.90
11664;DHT22;72375;59.302;18.204;2023-12-20T15:44:28;4.20;99.90
11664;DHT22;72375;59.302;18.204;2023-12-20T15:47:13;4.20;99.90
11664;DHT22;72375;59.302;18.204;2023-12-20T15:49:59;4.20;99.90
11664;DHT22;72375;59.302;18.204;2023-12-20T15:52:44;4.30;99.90
11664;DHT22;72375;59.302;18.204;2023-12-20T15:55:30;4.20;99.90
11664;DHT22;72375;59.302;18.204;2023-12-20T15:58:17;4.30;99.90
11664;DHT22;72375;59.302;18.204;2023-12-20T16:01:03;4.30;99.90
11664;DHT22;72375;59.302;18.204;2023-12-20T16:03:49;4.30;99.90
11664;DHT22;72375;59.302;18.204;2023-12-20T16:06:34;4.30;99.90
11664;DHT22;72375;59.302;18.204;2023-12-20T16:09:21;4.40;99.90
11664;DHT22;72375;59.302;18.204;2023-12-20T16:12:07;4.40;99.90
11664;DHT22;72375;59.302;18.204;2023-12-20T16:14:56;4.80;99.90
11664;DHT22;72375;59.302;18.204;2023-12-20T16:17:41;5.50;99.90
11664;DHT22;72375;59.302;18.204;2023-12-20T16:20:27;5.60;99.90
11664;DHT22;72375;59.302;18.204;2023-12-20T16:23:13;5.40;99.90
11664;DHT22;72375;59.302;18.204;2023-12-20T16:25:58;5.20;99.90
11664;DHT22;72375;59.302;18.204;2023-12-20T16:28:44;5.00;99.90
11664;DHT22;72375;59.302;18.204;2023-12-20T16:31:31;4.90;99.90
11664;DHT22;72375;59.302;18.204;2023-12-20T16:34:16;4.80;99.90
11664;DHT22;72375;59.302;18.204;2023-12-20T16:37:02;4.70;99.90
11664;DHT22;72375;59.302;18.204;2023-12-20T16:39:48;4.70;99.90
11664;DHT22;72375;59.302;18.204;2023-12-20T16:42:34;4.60;99.90
11664;DHT22;72375;59.302;18.204;2023-12-20T16:45:20;4.60;99.90
11664;DHT22;72375;59.302;18.204;2023-12-20T16:48:07;4.50;99.90
11664;DHT22;72375;59.302;18.204;2023-12-20T16:50:55;4.50;99.90
11664;DHT22;72375;59.302;18.204;2023-12-20T16:53:41;4.60;99.90
11664;DHT22;72375;59.302;18.204;2023-12-20T16:56:27;4.50;99.90
11664;DHT22;72375;59.302;18.204;2023-12-20T16:59:13;4.50;99.90
11664;DHT22;72375;59.302;18.204;2023-12-20T17:01:58;4.50;99.90
11664;DHT22;72375;59.302;18.204;2023-12-20T17:04:47;4.50;99.90
11664;DHT22;72375;59.302;18.204;2023-12-20T17:07:34;4.50;99.90
11664;DHT22;72375;59.302;18.204;2023-12-20T17:10:20;4.40;99.90
11664;DHT22;72375;59.302;18.204;2023-12-20T17:13:06;4.40;99.90
11664;DHT22;72375;59.302;18.204;2023-12-20T17:15:51;4.40;99.90
11664;DHT22;72375;59.302;18.204;2023-12-20T17:18:37;4.40;99.90
11664;DHT22;72375;59.302;18.204;2023-12-20T17:21:25;4.30;99.90
11664;DHT22;72375;59.302;18.204;2023-12-20T17:24:10;4.30;99.90
11664;DHT22;72375;59.302;18.204;2023-12-20T17:26:56;4.30;99.90
11664;DHT22;72375;59.302;18.204;2023-12-20T17:29:42;4.20;99.90